createdAt,value
2022-12-15T00:00:24.387Z,0.25
2022-12-15T00:03:31.173Z,0.14
2022-12-15T00:06:19.797Z,0.03
2022-12-15T00:09:11.239Z,-0.11
2022-12-15T00:12:00.848Z,-0.31
2022-12-15T00:14:47.764Z,-0.47
2022-12-15T00:17:35.077Z,-0.60
2022-12-15T00:20:22.840Z,-0.66
2022-12-15T00:23:09.478Z,-0.70
2022-12-15T00:25:56.452Z,-0.74
2022-12-15T00:28:43.355Z,-0.81
2022-12-15T00:31:30.504Z,-0.87
2022-12-15T00:34:17.390Z,-0.91
2022-12-15T00:37:06.331Z,-0.92
2022-12-15T00:39:34.303Z,-0.89
2022-12-15T00:42:02.363Z,-0.85
2022-12-15T00:44:30.343Z,-0.81
2022-12-15T00:46:58.872Z,-0.74
2022-12-15T00:49:48.782Z,-0.75
2022-12-15T00:52:37.010Z,-0.74
2022-12-15T00:55:24.423Z,-0.78
2022-12-15T00:58:12.557Z,-0.76
2022-12-15T01:00:59.888Z,-0.77
2022-12-15T01:03:46.686Z,-0.83
2022-12-15T01:06:35.776Z,-0.94
2022-12-15T01:09:23.311Z,-1.05
2022-12-15T01:12:09.924Z,-1.13
2022-12-15T01:14:56.780Z,-1.19
2022-12-15T01:17:44.044Z,-1.19
2022-12-15T01:20:21.159Z,-1.23
2022-12-15T01:22:53.080Z,-1.27
2022-12-15T01:25:24.735Z,-1.26
2022-12-15T01:27:52.712Z,-1.26
2022-12-15T01:30:24.490Z,-1.25
2022-12-15T01:32:52.952Z,-1.29
2022-12-15T01:35:21.847Z,-1.31
2022-12-15T01:37:50.041Z,-1.32
2022-12-15T01:40:39.466Z,-1.30
2022-12-15T01:43:27.667Z,-1.24
2022-12-15T01:46:07.804Z,-1.18
2022-12-15T01:48:41.701Z,-1.09
2022-12-15T01:51:45.128Z,-1.01
2022-12-15T01:54:45.375Z,-0.91
2022-12-15T01:57:24.634Z,-0.80
2022-12-15T01:59:58.086Z,-0.74
2022-12-15T02:02:29.661Z,-0.70
2022-12-15T02:05:00.031Z,-0.68
2022-12-15T02:07:27.948Z,-0.65
2022-12-15T02:10:00.962Z,-0.67
2022-12-15T02:12:47.587Z,-0.70
2022-12-15T02:15:24.706Z,-0.69
2022-12-15T02:18:11.556Z,-0.67
2022-12-15T02:20:56.651Z,-0.62
2022-12-15T02:23:52.916Z,-0.61
2022-12-15T02:26:59.528Z,-0.62
2022-12-15T02:29:30.629Z,-0.65
2022-12-15T02:31:58.508Z,-0.64
2022-12-15T02:34:45.107Z,-0.59
2022-12-15T02:37:22.850Z,-0.55
2022-12-15T02:39:50.853Z,-0.53
2022-12-15T02:42:18.967Z,-0.53
2022-12-15T02:44:56.335Z,-0.49
2022-12-15T02:48:02.124Z,-0.45
2022-12-15T02:50:40.201Z,-0.44
2022-12-15T02:53:27.631Z,-0.42
2022-12-15T02:56:19.297Z,-0.40
2022-12-15T02:59:02.598Z,-0.39
2022-12-15T03:01:37.003Z,-0.35
2022-12-15T03:04:08.441Z,-0.34
2022-12-15T03:06:36.422Z,-0.37
2022-12-15T03:09:04.585Z,-0.40
2022-12-15T03:11:32.465Z,-0.43
2022-12-15T03:14:00.299Z,-0.43
2022-12-15T03:16:28.265Z,-0.42
2022-12-15T03:18:56.124Z,-0.38
2022-12-15T03:21:24.027Z,-0.30
2022-12-15T03:23:51.931Z,-0.25
2022-12-15T03:26:19.780Z,-0.24
2022-12-15T03:28:48.665Z,-0.23
2022-12-15T03:31:16.653Z,-0.19
2022-12-15T03:33:44.540Z,-0.15
2022-12-15T03:36:28.485Z,-0.12
2022-12-15T03:38:56.336Z,-0.12
2022-12-15T03:41:24.287Z,-0.09
2022-12-15T03:43:52.188Z,-0.07
2022-12-15T03:46:20.212Z,-0.08
2022-12-15T03:48:49.237Z,-0.08
2022-12-15T03:51:17.103Z,-0.10
2022-12-15T03:53:45.083Z,-0.12
2022-12-15T03:56:13.635Z,-0.14
2022-12-15T03:58:41.476Z,-0.12
2022-12-15T04:01:11.896Z,-0.11
2022-12-15T04:03:41.087Z,-0.07
2022-12-15T04:06:09.068Z,-0.05
2022-12-15T04:08:37.043Z,-0.02
2022-12-15T04:11:05.146Z,0.00
2022-12-15T04:13:33.513Z,-0.01
2022-12-15T04:16:03.512Z,-0.02
2022-12-15T04:18:31.625Z,-0.01
2022-12-15T04:20:59.401Z,0.01
2022-12-15T04:23:27.641Z,0.03
2022-12-15T04:26:14.446Z,0.05
2022-12-15T04:29:01.589Z,0.07
2022-12-15T04:31:52.885Z,0.08
2022-12-15T04:34:43.281Z,0.03
2022-12-15T04:37:32.487Z,0.01
2022-12-15T04:40:19.664Z,0.00
2022-12-15T04:43:06.962Z,-0.02
2022-12-15T04:45:53.945Z,-0.01
2022-12-15T04:48:40.807Z,0.01
2022-12-15T04:51:27.256Z,-0.02
2022-12-15T04:54:14.030Z,-0.02
2022-12-15T04:57:00.632Z,-0.02
2022-12-15T04:59:48.417Z,0.00
2022-12-15T05:02:35.221Z,0.04
2022-12-15T05:05:22.115Z,0.07
2022-12-15T05:08:08.859Z,0.06
2022-12-15T05:10:55.543Z,0.03
2022-12-15T05:13:42.311Z,0.02
2022-12-15T05:16:29.021Z,0.02
2022-12-15T05:19:16.030Z,-0.02
2022-12-15T05:22:02.441Z,-0.02
2022-12-15T05:24:49.155Z,-0.03
2022-12-15T05:27:35.693Z,-0.03
2022-12-15T05:30:22.943Z,-0.04
2022-12-15T05:32:50.852Z,-0.05
2022-12-15T05:35:18.907Z,-0.06
2022-12-15T05:37:46.836Z,-0.06
2022-12-15T05:40:14.782Z,-0.07
2022-12-15T05:42:42.711Z,-0.09
2022-12-15T05:45:11.007Z,-0.11
2022-12-15T05:47:38.804Z,-0.14
2022-12-15T05:50:07.341Z,-0.15
2022-12-15T05:52:35.319Z,-0.13
2022-12-15T05:55:03.525Z,-0.12
2022-12-15T05:57:31.416Z,-0.11
2022-12-15T05:59:59.436Z,-0.11
2022-12-15T06:02:30.595Z,-0.14
2022-12-15T06:04:58.928Z,-0.16
2022-12-15T06:07:27.379Z,-0.17
2022-12-15T06:09:55.383Z,-0.17
2022-12-15T06:12:23.412Z,-0.18
2022-12-15T06:14:51.475Z,-0.19
2022-12-15T06:17:19.458Z,-0.20
2022-12-15T06:19:48.389Z,-0.23
2022-12-15T06:22:16.544Z,-0.25
2022-12-15T06:24:44.387Z,-0.27
2022-12-15T06:27:12.317Z,-0.28
2022-12-15T06:29:40.148Z,-0.34
2022-12-15T06:32:09.127Z,-0.38
2022-12-15T06:34:37.155Z,-0.40
2022-12-15T06:37:05.229Z,-0.38
2022-12-15T06:39:33.082Z,-0.34
2022-12-15T06:42:00.978Z,-0.31
2022-12-15T06:44:28.888Z,-0.30
2022-12-15T06:46:56.950Z,-0.29
2022-12-15T06:49:24.859Z,-0.26
2022-12-15T06:51:52.765Z,-0.21
2022-12-15T06:54:20.832Z,-0.19
2022-12-15T06:56:50.229Z,-0.17
2022-12-15T06:59:18.392Z,-0.12
2022-12-15T07:01:46.653Z,-0.06
2022-12-15T07:04:15.249Z,-0.00
2022-12-15T07:06:43.394Z,0.05
2022-12-15T07:09:13.306Z,0.09
2022-12-15T07:11:41.235Z,0.13
2022-12-15T07:14:10.187Z,0.15
2022-12-15T07:16:38.223Z,0.18
2022-12-15T07:19:06.354Z,0.20
2022-12-15T07:21:34.345Z,0.19
2022-12-15T07:24:02.846Z,0.18
2022-12-15T07:26:31.608Z,0.20
2022-12-15T07:28:59.480Z,0.24
2022-12-15T07:31:27.426Z,0.28
2022-12-15T07:33:57.343Z,0.30
2022-12-15T07:36:26.554Z,0.33
2022-12-15T07:39:01.243Z,0.35
2022-12-15T07:41:30.201Z,0.38
2022-12-15T07:43:58.771Z,0.42
2022-12-15T07:46:26.868Z,0.46
2022-12-15T07:48:55.942Z,0.49
2022-12-15T07:51:23.963Z,0.54
2022-12-15T07:53:52.041Z,0.62
2022-12-15T07:56:20.640Z,0.72
2022-12-15T07:58:49.704Z,0.84
2022-12-15T08:01:19.184Z,0.93
2022-12-15T08:03:49.136Z,1.02
2022-12-15T08:06:17.359Z,1.14
2022-12-15T08:08:50.304Z,1.24
2022-12-15T08:11:22.602Z,1.29
2022-12-15T08:14:10.522Z,1.28
2022-12-15T08:16:39.261Z,1.28
2022-12-15T08:19:11.053Z,1.29
2022-12-15T08:21:40.971Z,1.31
2022-12-15T08:24:09.923Z,1.32
2022-12-15T08:26:39.062Z,1.33
2022-12-15T08:31:56.413Z,1.37
2022-12-15T08:34:24.469Z,1.39
2022-12-15T08:36:52.623Z,1.42
2022-12-15T08:39:20.746Z,1.41
2022-12-15T08:41:49.957Z,1.41
2022-12-15T08:44:18.374Z,1.44
2022-12-15T08:46:46.229Z,1.46
2022-12-15T08:49:19.602Z,1.52
2022-12-15T08:51:50.681Z,1.61
2022-12-15T08:54:19.767Z,1.66
2022-12-15T08:56:47.950Z,1.63
2022-12-15T08:59:16.124Z,1.64
2022-12-15T09:01:44.269Z,1.65
2022-12-15T09:04:12.269Z,1.66
2022-12-15T09:06:40.411Z,1.72
2022-12-15T09:09:10.683Z,1.76
2022-12-15T09:11:38.726Z,1.77
2022-12-15T09:14:07.296Z,1.81
2022-12-15T09:16:35.275Z,1.84
2022-12-15T09:19:03.788Z,1.86
2022-12-15T09:21:32.349Z,1.91
2022-12-15T09:24:02.205Z,1.95
2022-12-15T09:26:31.593Z,2.00
2022-12-15T09:29:00.391Z,2.07
2022-12-15T09:31:31.224Z,2.13
2022-12-15T09:34:00.387Z,2.16
2022-12-15T09:36:30.506Z,2.15
2022-12-15T09:38:58.862Z,2.14
2022-12-15T09:41:30.000Z,2.11
2022-12-15T09:44:10.632Z,2.08
2022-12-15T09:46:50.782Z,2.09
2022-12-15T09:49:55.641Z,2.10
2022-12-15T09:52:43.152Z,2.12
2022-12-15T09:55:30.875Z,2.14
2022-12-15T09:58:11.338Z,2.20
2022-12-15T10:00:52.398Z,2.25
2022-12-15T10:03:48.610Z,2.32
2022-12-15T10:06:22.693Z,2.33
2022-12-15T10:09:00.997Z,2.40
2022-12-15T10:11:59.311Z,2.46
2022-12-15T10:14:27.139Z,2.51
2022-12-15T10:17:16.575Z,2.55
2022-12-15T10:20:09.838Z,2.61
2022-12-15T10:22:38.257Z,2.62
2022-12-15T10:25:18.080Z,2.60
2022-12-15T10:27:57.377Z,2.58
2022-12-15T10:30:25.422Z,2.57
2022-12-15T10:32:59.541Z,2.58
2022-12-15T10:35:33.826Z,2.59
2022-12-15T10:38:05.224Z,2.49
2022-12-15T10:40:44.410Z,2.28
2022-12-15T10:43:32.503Z,2.11
2022-12-15T10:46:20.787Z,2.11
2022-12-15T10:48:58.085Z,2.23
2022-12-15T10:51:31.808Z,2.34
2022-12-15T10:54:09.975Z,2.47
2022-12-15T10:57:00.602Z,2.57
2022-12-15T10:59:38.181Z,2.58
2022-12-15T11:02:24.506Z,2.56
2022-12-15T11:05:15.670Z,2.50
2022-12-15T11:07:48.164Z,2.47
2022-12-15T11:10:50.552Z,2.46
2022-12-15T11:13:20.768Z,2.40
2022-12-15T11:15:53.438Z,2.35
2022-12-15T11:18:35.243Z,2.39
2022-12-15T11:21:17.504Z,2.47
2022-12-15T11:23:50.775Z,2.58
2022-12-15T11:26:36.555Z,2.62
2022-12-15T11:29:34.615Z,2.57
2022-12-15T11:32:07.003Z,2.48
2022-12-15T11:34:39.257Z,2.41
2022-12-15T11:37:40.273Z,2.40
2022-12-15T11:40:34.200Z,2.49
2022-12-15T11:43:21.038Z,2.60
2022-12-15T11:46:15.135Z,2.67
2022-12-15T11:48:47.315Z,2.73
2022-12-15T11:51:25.314Z,2.66
2022-12-15T11:54:14.166Z,2.66
2022-12-15T11:56:45.390Z,2.67
2022-12-15T11:59:37.386Z,2.73
2022-12-15T12:02:20.821Z,2.72
2022-12-15T12:05:21.371Z,2.76
2022-12-15T12:07:53.092Z,2.80
2022-12-15T12:10:30.174Z,2.73
2022-12-15T12:13:09.953Z,2.66
2022-12-15T12:16:04.182Z,2.64
2022-12-15T12:18:46.803Z,2.71
2022-12-15T12:21:26.826Z,2.74
2022-12-15T12:24:02.109Z,2.78
2022-12-15T12:26:45.244Z,2.74
2022-12-15T12:29:17.286Z,2.64
2022-12-15T12:31:57.737Z,2.58
2022-12-15T12:34:35.118Z,2.57
2022-12-15T12:37:32.414Z,2.58
2022-12-15T12:40:03.458Z,2.55
2022-12-15T12:42:43.137Z,2.56
2022-12-15T12:45:14.579Z,2.59
2022-12-15T12:47:50.302Z,2.63
2022-12-15T12:50:22.525Z,2.60
2022-12-15T12:52:54.131Z,2.57
2022-12-15T12:55:44.069Z,2.56
2022-12-15T12:58:37.324Z,2.51
2022-12-15T13:01:14.296Z,2.49
2022-12-15T13:03:42.658Z,2.45
2022-12-15T13:06:42.767Z,2.37
2022-12-15T13:09:17.038Z,2.32
2022-12-15T13:11:51.705Z,2.33
2022-12-15T13:14:26.051Z,2.36
2022-12-15T13:17:27.168Z,2.40
2022-12-15T13:19:58.520Z,2.45
2022-12-15T13:22:42.400Z,2.50
2022-12-15T13:25:35.870Z,2.47
2022-12-15T13:28:44.489Z,2.40
2022-12-15T13:31:13.881Z,2.36
2022-12-15T13:33:51.400Z,2.33
2022-12-15T13:36:50.661Z,2.30
2022-12-15T13:39:22.315Z,2.30
2022-12-15T13:42:31.737Z,2.29
2022-12-15T13:44:52.046Z,2.29
2022-12-15T13:47:29.796Z,2.27
2022-12-15T13:50:01.839Z,2.25
2022-12-15T13:53:17.378Z,2.29
2022-12-15T13:55:38.601Z,2.36
2022-12-15T13:58:16.167Z,2.40
2022-12-15T14:00:54.773Z,2.41
2022-12-15T14:03:24.101Z,2.35
2022-12-15T14:05:53.513Z,2.29
2022-12-15T14:08:23.893Z,2.25
2022-12-15T14:10:54.030Z,2.21
2022-12-15T14:13:36.232Z,2.17
2022-12-15T14:16:17.630Z,2.14
2022-12-15T14:19:03.989Z,2.12
2022-12-15T14:21:31.968Z,2.10
2022-12-15T14:24:37.105Z,2.10
2022-12-15T14:29:37.227Z,2.04
2022-12-15T14:32:10.300Z,2.04
2022-12-15T14:34:44.398Z,2.01
2022-12-15T14:37:21.215Z,1.85
2022-12-15T14:39:50.605Z,1.76
2022-12-15T14:42:20.675Z,1.63
2022-12-15T14:44:58.066Z,1.53
2022-12-15T14:47:33.904Z,1.50
2022-12-15T14:50:09.851Z,1.49
2022-12-15T14:52:40.214Z,1.47
2022-12-15T14:55:37.136Z,1.47
2022-12-15T14:58:27.518Z,1.49
2022-12-15T15:00:56.282Z,1.50
2022-12-15T15:03:16.428Z,2.08
2022-12-15T15:03:35.589Z,1.52
2022-12-15T15:06:12.998Z,1.48
2022-12-15T15:08:48.250Z,1.40
2022-12-15T15:11:37.210Z,1.36
2022-12-15T15:14:09.151Z,1.33
2022-12-15T15:16:39.430Z,1.35
2022-12-15T15:19:15.645Z,1.36
2022-12-15T15:21:47.163Z,1.35
2022-12-15T15:24:15.453Z,1.34
2022-12-15T15:26:43.557Z,1.34
2022-12-15T15:29:30.593Z,1.34
2022-12-15T15:32:07.950Z,1.30
2022-12-15T15:34:36.103Z,1.28
2022-12-15T15:37:06.361Z,1.34
2022-12-15T15:39:34.344Z,1.38
2022-12-15T15:42:12.629Z,1.37
2022-12-15T15:44:40.721Z,1.39
2022-12-15T15:47:22.650Z,1.40
2022-12-15T15:49:55.110Z,1.33
2022-12-15T15:52:23.035Z,1.27
2022-12-15T15:54:52.927Z,1.23
2022-12-15T15:57:21.042Z,1.24
2022-12-15T15:59:49.203Z,1.28
2022-12-15T16:02:17.457Z,1.29
2022-12-15T16:04:45.881Z,1.27
2022-12-15T16:07:24.755Z,1.27
2022-12-15T16:09:53.604Z,1.30
2022-12-15T16:12:58.541Z,1.33
2022-12-15T16:15:29.720Z,1.33
2022-12-15T16:17:59.146Z,1.31
2022-12-15T16:20:28.943Z,1.28
2022-12-15T16:22:59.328Z,1.25
2022-12-15T16:25:45.240Z,1.23
2022-12-15T16:28:25.011Z,1.21
2022-12-15T16:30:55.914Z,1.20
2022-12-15T16:33:24.841Z,1.18
2022-12-15T16:35:54.010Z,1.17
2022-12-15T16:38:26.337Z,1.16
2022-12-15T16:40:56.089Z,1.17
2022-12-15T16:43:26.886Z,1.14
2022-12-15T16:45:57.222Z,1.09
2022-12-15T16:48:27.741Z,1.04
2022-12-15T16:51:01.163Z,0.98
2022-12-15T16:53:33.352Z,0.94
2022-12-15T16:56:06.720Z,0.91
2022-12-15T16:58:35.970Z,0.90
2022-12-15T17:01:04.397Z,0.89
2022-12-15T17:03:32.387Z,0.80
2022-12-15T17:06:01.957Z,0.80
2022-12-15T17:08:40.350Z,0.79
2022-12-15T17:11:17.132Z,0.75
2022-12-15T17:13:48.278Z,0.73
2022-12-15T17:16:17.572Z,0.74
2022-12-15T17:18:50.107Z,0.75
2022-12-15T17:21:28.825Z,0.75
2022-12-15T17:24:04.148Z,0.75
2022-12-15T17:26:36.595Z,0.74
2022-12-15T17:29:14.904Z,0.68
2022-12-15T17:31:42.987Z,0.64
2022-12-15T17:34:32.499Z,0.60
2022-12-15T17:37:04.505Z,0.55
2022-12-15T17:39:33.617Z,0.59
2022-12-15T17:42:02.841Z,0.66
2022-12-15T17:44:37.471Z,0.70
2022-12-15T17:47:08.826Z,0.69
2022-12-15T17:49:38.740Z,0.68
2022-12-15T17:52:27.105Z,0.71
2022-12-15T17:54:56.290Z,0.75
2022-12-15T17:57:24.540Z,0.75
2022-12-15T17:59:53.984Z,0.76
2022-12-15T18:02:22.163Z,0.81
2022-12-15T18:04:50.508Z,0.80
2022-12-15T18:07:23.966Z,0.79
2022-12-15T18:09:52.380Z,0.77
2022-12-15T18:12:23.993Z,0.80
2022-12-15T18:14:52.350Z,0.80
2022-12-15T18:17:20.682Z,0.79
2022-12-15T18:19:48.879Z,0.76
2022-12-15T18:22:23.328Z,0.73
2022-12-15T18:24:53.588Z,0.72
2022-12-15T18:27:25.193Z,0.70
2022-12-15T18:29:54.313Z,0.70
2022-12-15T18:32:26.385Z,0.74
2022-12-15T18:34:55.217Z,0.82
2022-12-15T18:37:26.260Z,0.87
2022-12-15T18:39:58.295Z,0.94
2022-12-15T18:42:33.674Z,1.00
2022-12-15T18:45:05.994Z,1.06
2022-12-15T18:47:34.286Z,1.10
2022-12-15T18:50:03.482Z,1.10
2022-12-15T18:52:34.893Z,1.09
2022-12-15T18:55:03.307Z,1.04
2022-12-15T18:57:36.028Z,0.96
2022-12-15T19:00:27.950Z,0.91
2022-12-15T19:03:00.190Z,0.90
2022-12-15T19:05:29.245Z,0.92
2022-12-15T19:08:10.909Z,0.95
2022-12-15T19:10:52.537Z,1.00
2022-12-15T19:13:23.467Z,1.00
2022-12-15T19:15:53.192Z,0.94
2022-12-15T19:18:42.352Z,0.90
2022-12-15T19:21:44.422Z,0.86
2022-12-15T19:24:40.594Z,0.82
2022-12-15T19:27:12.809Z,0.83
2022-12-15T19:29:41.595Z,0.88
2022-12-15T19:32:09.713Z,0.95
2022-12-15T19:34:38.263Z,1.00
2022-12-15T19:37:32.103Z,1.03
2022-12-15T19:40:01.847Z,1.06
2022-12-15T19:42:31.429Z,1.10
2022-12-15T19:45:01.558Z,1.17
2022-12-15T19:47:29.989Z,1.20
2022-12-15T19:49:57.968Z,1.17
2022-12-15T19:52:26.668Z,1.12
2022-12-15T19:54:55.758Z,1.06
2022-12-15T19:57:27.415Z,0.97
2022-12-15T19:59:55.342Z,0.88
2022-12-15T20:02:23.388Z,0.85
2022-12-15T20:04:51.601Z,0.81
2022-12-15T20:07:22.357Z,0.83
2022-12-15T20:09:50.381Z,0.90
2022-12-15T20:12:19.800Z,0.99
2022-12-15T20:14:47.865Z,1.08
2022-12-15T20:17:16.154Z,1.13
2022-12-15T20:19:44.669Z,1.16
2022-12-15T20:22:19.195Z,1.18
2022-12-15T20:24:48.457Z,1.21
2022-12-15T20:27:19.293Z,1.19
2022-12-15T20:29:47.441Z,1.17
2022-12-15T20:32:20.234Z,1.18
2022-12-15T20:34:48.966Z,1.19
2022-12-15T20:37:27.100Z,1.14
2022-12-15T20:39:57.612Z,1.14
2022-12-15T20:42:26.016Z,1.14
2022-12-15T20:44:54.508Z,1.18
2022-12-15T20:47:27.769Z,1.15
2022-12-15T20:49:55.867Z,1.11
2022-12-15T20:52:27.155Z,1.10
2022-12-15T20:54:55.468Z,1.05
2022-12-15T20:57:23.309Z,1.01
2022-12-15T20:59:51.276Z,0.97
2022-12-15T21:02:20.641Z,0.91
2022-12-15T21:04:49.616Z,0.87
2022-12-15T21:07:17.718Z,0.84
2022-12-15T21:09:45.735Z,0.83
2022-12-15T21:12:22.211Z,0.86
2022-12-15T21:14:51.220Z,0.93
2022-12-15T21:17:23.287Z,1.00
2022-12-15T21:19:51.964Z,1.05
2022-12-15T21:22:24.101Z,1.06
2022-12-15T21:24:54.919Z,1.05
2022-12-15T21:27:23.392Z,1.01
2022-12-15T21:29:52.885Z,1.04
2022-12-15T21:32:21.033Z,1.06
2022-12-15T21:34:50.081Z,1.05
2022-12-15T21:37:39.431Z,1.00
2022-12-15T21:40:17.474Z,0.93
2022-12-15T21:42:47.305Z,0.85
2022-12-15T21:45:19.318Z,0.81
2022-12-15T21:48:07.354Z,0.77
2022-12-15T21:50:37.046Z,0.72
2022-12-15T21:53:07.033Z,0.72
2022-12-15T21:55:34.920Z,0.73
2022-12-15T21:58:03.301Z,0.73
2022-12-15T22:00:31.234Z,0.73
2022-12-15T22:02:59.394Z,0.76
2022-12-15T22:05:31.524Z,0.76
2022-12-15T22:08:12.172Z,0.72
2022-12-15T22:10:40.095Z,0.62
2022-12-15T22:13:14.958Z,0.50
2022-12-15T22:15:43.788Z,0.41
2022-12-15T22:18:19.445Z,0.38
2022-12-15T22:20:50.782Z,0.35
2022-12-15T22:23:23.147Z,0.32
2022-12-15T22:25:55.154Z,0.31
2022-12-15T22:28:27.378Z,0.30
2022-12-15T22:30:57.908Z,0.27
2022-12-15T22:33:26.277Z,0.28
2022-12-15T22:35:56.179Z,0.25
2022-12-15T22:38:24.234Z,0.16
2022-12-15T22:40:54.192Z,0.11
2022-12-15T22:43:34.258Z,0.05
2022-12-15T22:46:04.808Z,0.04
2022-12-15T22:48:35.286Z,0.02
2022-12-15T22:51:04.374Z,0.05
2022-12-15T22:53:34.517Z,0.05
2022-12-15T22:56:06.317Z,0.04
2022-12-15T22:58:37.358Z,0.01
2022-12-15T23:01:06.817Z,0.02
2022-12-15T23:03:35.680Z,0.01
2022-12-15T23:06:04.852Z,-0.00
2022-12-15T23:08:33.072Z,0.04
2022-12-15T23:11:19.704Z,0.08
2022-12-15T23:13:47.730Z,0.12
2022-12-15T23:16:22.161Z,0.17
2022-12-15T23:18:51.859Z,0.13
2022-12-15T23:21:21.593Z,0.03
2022-12-15T23:23:50.120Z,-0.08
2022-12-15T23:26:20.531Z,-0.17
2022-12-15T23:28:49.416Z,-0.18
2022-12-15T23:31:17.917Z,-0.19
2022-12-15T23:33:46.920Z,-0.19
2022-12-15T23:36:14.761Z,-0.18
2022-12-15T23:38:42.941Z,-0.17
2022-12-15T23:41:14.789Z,-0.13
2022-12-15T23:43:42.844Z,-0.06
2022-12-15T23:46:10.903Z,-0.01
2022-12-15T23:48:41.301Z,0.04
2022-12-15T23:51:12.647Z,0.00
2022-12-15T23:53:41.781Z,-0.06
2022-12-15T23:56:18.476Z,-0.07
2022-12-15T23:58:49.373Z,-0.09
